Modern Chance — ELXJ7 — position and weather

sailwx.info

Track history (hours):
 
Tides and Currents Weather Stations Pressure Air Temp Water Temp Dewpoint Dewpoint Depression Visibility Wind Speed Wind Dir Waves Ship Positions

Modern Chance

Last reported at 2014-Jun-04 04:33 UTC. Time now 2014-Dec-21 15:54 UTC.
Position N 50°12' W 001°51'.
Warning: this ship's position is months out of date.

Length 164 m; beam 28 m.

Type: Cargo ship. MMSI: 636011177.

Date/timePositionNaut miles runAvg speedWind from/ knotsBaromVisibWave heightAir tempDewpointWater temp
2014-Jun-04 04:33N 50°12' W 001°51'1817.6
2014-Jun-04 03:34N 50°17' W 001°25'1616.1
2014-Jun-04 02:33N 50°20' W 001°00'1514.4
2014-Jun-04 01:32N 50°24' W 000°38'1413.8
2014-Jun-04 00:32N 50°28' W 000°17'1414.0
2014-Jun-03 23:33N 50°31' E 000°04'1414.3
2014-Jun-03 22:33N 50°36' E 000°25'1615.5
2014-Jun-03 21:33N 50°42' E 000°47'1616.2
2014-Jun-03 20:33N 50°51' E 001°09'1616.0
2014-Jun-03 19:34N 51°02' E 001°27'1414.4
2014-Jun-03 18:34N 51°12' E 001°43'1513.8
2014-Jun-03 17:30N 51°24' E 001°58'1313.6
2014-Jun-03 16:33N 51°21' E 002°18'1413.6
2014-Jun-03 15:33N 51°23' E 002°39'1312.8
2014-Jun-03 14:34N 51°24' E 002°60'9 8.1
2014-Jun-03 13:25N 51°20' E 003°13'1 0.6
2014-Jun-03 12:33N 51°20' E 003°13'0 0.4
2014-Jun-03 11:23N 51°19' E 003°13'0 0.0
2014-Jun-03 10:31N 51°19' E 003°13'0 0.0
2014-Jun-03 09:33N 51°19' E 003°13'0 0.0
2014-Jun-03 08:32N 51°19' E 003°13'0 0.0
2014-Jun-03 07:24N 51°19' E 003°13'0 0.0
2014-Jun-03 06:26N 51°19' E 003°13'0 0.0
2014-Jun-03 05:26N 51°19' E 003°13'0 0.0
2014-Jun-03 04:30N 51°19' E 003°13'0 0.0
2014-Jun-03 03:31N 51°19' E 003°13'0 0.0
2014-Jun-03 02:24N 51°19' E 003°13'0 0.0
2014-Jun-03 01:32N 51°19' E 003°13'0 0.0
2014-Jun-03 00:31N 51°19' E 003°13'0 0.0
2014-Jun-02 22:18N 51°19' E 003°13'0 0.0
2014-Jun-02 20:20N 51°19' E 003°13'0 0.0
2014-Jun-02 19:31N 51°19' E 003°13'0 0.0
2014-Jun-02 18:27N 51°19' E 003°13'0 0.0
2014-Jun-02 17:32N 51°19' E 003°13'0 0.0
2014-Jun-02 16:27N 51°19' E 003°13'0 0.0
2014-Jun-02 15:21N 51°19' E 003°13'0 0.0
2014-Jun-02 14:23N 51°19' E 003°13'0 0.0
2014-Jun-02 13:33N 51°19' E 003°13'0 0.0
2014-Jun-02 12:32N 51°19' E 003°13'0 0.0
2014-Jun-02 11:27N 51°19' E 003°13'0 0.0
2014-Jun-02 10:29N 51°19' E 003°13'0 0.0
2014-Jun-02 09:19N 51°19' E 003°13'0 0.0
2014-Jun-02 08:29N 51°19' E 003°13'0 0.0
2014-Jun-02 06:26N 51°19' E 003°13'0 0.0
2014-Jun-02 05:27N 51°19' E 003°13'0 0.0
2014-Jun-02 04:06N 51°19' E 003°13'0 0.0
2014-Jun-02 03:31N 51°19' E 003°13'0 0.0
2014-Jun-02 02:32N 51°19' E 003°13'0 0.0
2014-Jun-02 01:26N 51°19' E 003°13'0 0.0
2014-Jun-01 23:09N 51°19' E 003°13'0 0.1
2014-Jun-01 22:31N 51°19' E 003°13'1 0.7
2014-Jun-01 21:28N 51°20' E 003°13'1 0.8
2014-Jun-01 20:34N 51°21' E 003°13'1212.0
2014-Jun-01 19:34N 51°25' E 002°55'1312.6
2014-Jun-01 18:33N 51°22' E 002°35'1110.9
2014-Jun-01 17:33N 51°18' E 002°19'1110.7
2014-Jun-01 16:33N 51°13' E 002°04'1616.2
2014-Jun-01 15:34N 51°05' E 001°41'1717.2
2014-Jun-01 14:33N 50°51' E 001°25'1716.2
2014-Jun-01 13:30N 50°37' E 001°10'1515.8
2014-Jun-01 12:33N 50°29' E 000°50'1716.6
2014-Jun-01 11:31N 50°25' E 000°23'2117.4
2014-Jun-01 10:18N 50°19' W 000°09'1317.5
2014-Jun-01 09:33N 50°15' W 000°28'  
2014-May-29 20:13N 43°35' W 003°46'459 9.7
2014-May-27 21:04N 50°38' E 000°36'714.3
2014-May-27 20:33N 50°42' E 000°46'1515.0
2014-May-27 19:33N 50°52' E 001°04'1116.5
2014-May-27 18:55N 50°59' E 001°17'718.0
2014-May-27 18:33N 51°03' E 001°25'918.5
2014-May-27 18:04N 51°08' E 001°36'918.0
2014-May-27 17:33N 51°14' E 001°48'1513.8
2014-May-27 16:26N 51°23' E 002°08'616.0
2014-May-27 16:03N 51°21' E 002°17'816.0
2014-May-27 15:33N 51°23' E 002°29'815.9
2014-May-27 15:05N 51°22' E 002°41'713.5
2014-May-27 14:33N 51°22' E 002°53'715.5
2014-May-27 14:04N 51°24' E 003°04'712.8
2014-May-27 13:34N 51°20' E 003°13'0 0.6
2014-May-27 13:04N 51°20' E 003°13'1 1.2
2014-May-27 12:34N 51°20' E 003°13'1 1.0
2014-May-27 11:59N 51°19' E 003°13'0 0.0
2014-May-27 11:32N 51°19' E 003°13'0 0.0
2014-May-27 11:04N 51°19' E 003°13'0 0.0
2014-May-27 10:31N 51°19' E 003°13'0 0.0
2014-May-27 09:57N 51°19' E 003°13'0 0.0
2014-May-27 09:33N 51°19' E 003°13'0 0.0
2014-May-27 09:02N 51°19' E 003°13'0 0.0
2014-May-27 08:31N 51°19' E 003°13'0 0.0
2014-May-27 07:32N 51°19' E 003°13'0 0.0
2014-May-27 06:57N 51°19' E 003°13'0 0.0
2014-May-27 06:27N 51°19' E 003°13'0 0.0
2014-May-27 06:04N 51°19' E 003°13'0 0.0
2014-May-27 05:32N 51°19' E 003°13'0 0.0
2014-May-27 04:33N 51°19' E 003°13'0 0.0
2014-May-27 04:02N 51°19' E 003°13'0 0.0
2014-May-27 03:33N 51°19' E 003°13'0 0.0
2014-May-27 00:33N 51°19' E 003°13'0 0.0
2014-May-27 00:02N 51°19' E 003°13'0 0.0
2014-May-26 23:24N 51°19' E 003°13'0 0.0
2014-May-26 22:58N 51°19' E 003°13'0 0.0
2014-May-26 22:31N 51°19' E 003°13'0 0.0
2014-May-26 22:02N 51°19' E 003°13'0 0.0
2014-May-26 21:30N 51°19' E 003°13'0 0.0
2014-May-26 20:02N 51°19' E 003°13'0 0.0
2014-May-26 19:21N 51°19' E 003°13'0 0.0
2014-May-26 18:57N 51°19' E 003°13'0 0.0
2014-May-26 18:27N 51°19' E 003°13'0 0.0
2014-May-26 18:01N 51°19' E 003°13'0 0.0
2014-May-26 17:32N 51°19' E 003°13'0 0.0
2014-May-26 17:00N 51°19' E 003°13'0 0.0
2014-May-26 16:28N 51°19' E 003°13'0 0.0
2014-May-26 16:01N 51°19' E 003°13'0 0.0
2014-May-26 15:29N 51°19' E 003°13'0 0.0
2014-May-26 14:30N 51°19' E 003°13'0 0.0
2014-May-26 13:55N 51°19' E 003°13'0 0.0
2014-May-26 13:33N 51°19' E 003°13'0 0.0
2014-May-26 13:01N 51°19' E 003°13'0 0.0
2014-May-26 12:27N 51°19' E 003°13'0 0.0
2014-May-26 12:04N 51°19' E 003°13'0 0.0
2014-May-26 11:29N 51°19' E 003°13'0 0.0
2014-May-26 10:58N 51°19' E 003°13'0 0.0
2014-May-26 10:33N 51°19' E 003°13'0 0.0
2014-May-26 10:03N 51°19' E 003°13'0 0.0
2014-May-26 09:32N 51°19' E 003°13'0 0.0
2014-May-26 09:00N 51°19' E 003°13'0 0.0
2014-May-26 08:26N 51°19' E 003°13'0 0.0
2014-May-26 08:02N 51°19' E 003°13'0 0.0
2014-May-26 07:31N 51°19' E 003°13'0 0.0
2014-May-26 06:59N 51°19' E 003°13'0 0.0
2014-May-26 06:27N 51°19' E 003°13'0 0.0
2014-May-26 06:03N 51°19' E 003°13'0 0.0
2014-May-26 05:04N 51°19' E 003°13'0 0.0
2014-May-26 04:33N 51°19' E 003°13'0 0.0
2014-May-26 04:04N 51°19' E 003°13'0 0.0
2014-May-26 03:21N 51°19' E 003°13'0 0.0
2014-May-26 02:57N 51°19' E 003°13'0 0.0
2014-May-26 02:23N 51°19' E 003°13'0 0.0
2014-May-26 02:03N 51°19' E 003°13'0 0.0
2014-May-26 01:31N 51°19' E 003°13'0 0.0
2014-May-26 00:56N 51°19' E 003°13'0 0.0
2014-May-26 00:32N 51°19' E 003°13'0 0.0
2014-May-26 00:03N 51°19' E 003°13'0 0.0
2014-May-25 23:31N 51°19' E 003°13'0 1.7
2014-May-25 23:18N 51°19' E 003°13'1 1.3
2014-May-25 22:33N 51°20' E 003°13'1 0.7
2014-May-25 21:33N 51°21' E 003°12'1111.3
2014-May-25 20:33N 51°22' E 002°54'1514.8
2014-May-25 19:33N 51°22' E 002°31'1815.5
2014-May-25 18:25N 51°14' E 002°06'1213.7
2014-May-25 17:33N 51°08' E 001°50'1312.8
2014-May-25 16:33N 50°59' E 001°35'1212.4
2014-May-25 15:34N 50°48' E 001°24'1614.6
2014-May-25 14:30N 50°36' E 001°09'1414.6
2014-May-25 13:33N 50°29' E 000°51'1514.5
2014-May-25 12:30N 50°25' E 000°28'4414.4
2014-May-25 09:28N 50°13' W 000°38'1515.1
2014-May-25 08:30N 50°09' W 001°00'2116.2
2014-May-25 07:14N 50°03' W 001°31'  
Track history (hours):
 
Tides and Currents Weather Stations Pressure Air Temp Water Temp Dewpoint Dewpoint Depression Visibility Wind Speed Wind Dir Waves Ship Positions

Modern Chance

Last reported at 2014-Jun-04 04:33 UTC. Time now 2014-Dec-21 15:54 UTC.
Position N 50°12' W 001°51'.
Warning: this ship's position is months out of date.

Length 164 m; beam 28 m.

Type: Cargo ship. MMSI: 636011177.

Date/timePositionNaut miles runAvg speedWind from/ knotsBaromVisibWave heightAir tempDewpointWater temp
2014-Jun-04 04:33N 50°12' W 001°51'1817.6
2014-Jun-04 03:34N 50°17' W 001°25'1616.1
2014-Jun-04 02:33N 50°20' W 001°00'1514.4
2014-Jun-04 01:32N 50°24' W 000°38'1413.8
2014-Jun-04 00:32N 50°28' W 000°17'1414.0
2014-Jun-03 23:33N 50°31' E 000°04'1414.3
2014-Jun-03 22:33N 50°36' E 000°25'1615.5
2014-Jun-03 21:33N 50°42' E 000°47'1616.2
2014-Jun-03 20:33N 50°51' E 001°09'1616.0
2014-Jun-03 19:34N 51°02' E 001°27'1414.4
2014-Jun-03 18:34N 51°12' E 001°43'1513.8
2014-Jun-03 17:30N 51°24' E 001°58'1313.6
2014-Jun-03 16:33N 51°21' E 002°18'1413.6
2014-Jun-03 15:33N 51°23' E 002°39'1312.8
2014-Jun-03 14:34N 51°24' E 002°60'9 8.1
2014-Jun-03 13:25N 51°20' E 003°13'1 0.6
2014-Jun-03 12:33N 51°20' E 003°13'0 0.4
2014-Jun-03 11:23N 51°19' E 003°13'0 0.0
2014-Jun-03 10:31N 51°19' E 003°13'0 0.0
2014-Jun-03 09:33N 51°19' E 003°13'0 0.0
2014-Jun-03 08:32N 51°19' E 003°13'0 0.0
2014-Jun-03 07:24N 51°19' E 003°13'0 0.0
2014-Jun-03 06:26N 51°19' E 003°13'0 0.0
2014-Jun-03 05:26N 51°19' E 003°13'0 0.0
2014-Jun-03 04:30N 51°19' E 003°13'0 0.0
2014-Jun-03 03:31N 51°19' E 003°13'0 0.0
2014-Jun-03 02:24N 51°19' E 003°13'0 0.0
2014-Jun-03 01:32N 51°19' E 003°13'0 0.0
2014-Jun-03 00:31N 51°19' E 003°13'0 0.0
2014-Jun-02 22:18N 51°19' E 003°13'0 0.0
2014-Jun-02 20:20N 51°19' E 003°13'0 0.0
2014-Jun-02 19:31N 51°19' E 003°13'0 0.0
2014-Jun-02 18:27N 51°19' E 003°13'0 0.0
2014-Jun-02 17:32N 51°19' E 003°13'0 0.0
2014-Jun-02 16:27N 51°19' E 003°13'0 0.0
2014-Jun-02 15:21N 51°19' E 003°13'0 0.0
2014-Jun-02 14:23N 51°19' E 003°13'0 0.0
2014-Jun-02 13:33N 51°19' E 003°13'0 0.0
2014-Jun-02 12:32N 51°19' E 003°13'0 0.0
2014-Jun-02 11:27N 51°19' E 003°13'0 0.0
2014-Jun-02 10:29N 51°19' E 003°13'0 0.0
2014-Jun-02 09:19N 51°19' E 003°13'0 0.0
2014-Jun-02 08:29N 51°19' E 003°13'0 0.0
2014-Jun-02 06:26N 51°19' E 003°13'0 0.0
2014-Jun-02 05:27N 51°19' E 003°13'0 0.0
2014-Jun-02 04:06N 51°19' E 003°13'0 0.0
2014-Jun-02 03:31N 51°19' E 003°13'0 0.0
2014-Jun-02 02:32N 51°19' E 003°13'0 0.0
2014-Jun-02 01:26N 51°19' E 003°13'0 0.0
2014-Jun-01 23:09N 51°19' E 003°13'0 0.1
2014-Jun-01 22:31N 51°19' E 003°13'1 0.7
2014-Jun-01 21:28N 51°20' E 003°13'1 0.8
2014-Jun-01 20:34N 51°21' E 003°13'1212.0
2014-Jun-01 19:34N 51°25' E 002°55'1312.6
2014-Jun-01 18:33N 51°22' E 002°35'1110.9
2014-Jun-01 17:33N 51°18' E 002°19'1110.7
2014-Jun-01 16:33N 51°13' E 002°04'1616.2
2014-Jun-01 15:34N 51°05' E 001°41'1717.2
2014-Jun-01 14:33N 50°51' E 001°25'1716.2
2014-Jun-01 13:30N 50°37' E 001°10'1515.8
2014-Jun-01 12:33N 50°29' E 000°50'1716.6
2014-Jun-01 11:31N 50°25' E 000°23'2117.4
2014-Jun-01 10:18N 50°19' W 000°09'1317.5
2014-Jun-01 09:33N 50°15' W 000°28'  
2014-May-29 20:13N 43°35' W 003°46'459 9.7
2014-May-27 21:04N 50°38' E 000°36'714.3
2014-May-27 20:33N 50°42' E 000°46'1515.0
2014-May-27 19:33N 50°52' E 001°04'1116.5
2014-May-27 18:55N 50°59' E 001°17'718.0
2014-May-27 18:33N 51°03' E 001°25'918.5
2014-May-27 18:04N 51°08' E 001°36'918.0
2014-May-27 17:33N 51°14' E 001°48'1513.8
2014-May-27 16:26N 51°23' E 002°08'616.0
2014-May-27 16:03N 51°21' E 002°17'816.0
2014-May-27 15:33N 51°23' E 002°29'815.9
2014-May-27 15:05N 51°22' E 002°41'713.5
2014-May-27 14:33N 51°22' E 002°53'715.5
2014-May-27 14:04N 51°24' E 003°04'712.8
2014-May-27 13:34N 51°20' E 003°13'0 0.6
2014-May-27 13:04N 51°20' E 003°13'1 1.2
2014-May-27 12:34N 51°20' E 003°13'1 1.0
2014-May-27 11:59N 51°19' E 003°13'0 0.0
2014-May-27 11:32N 51°19' E 003°13'0 0.0
2014-May-27 11:04N 51°19' E 003°13'0 0.0
2014-May-27 10:31N 51°19' E 003°13'0 0.0
2014-May-27 09:57N 51°19' E 003°13'0 0.0
2014-May-27 09:33N 51°19' E 003°13'0 0.0
2014-May-27 09:02N 51°19' E 003°13'0 0.0
2014-May-27 08:31N 51°19' E 003°13'0 0.0
2014-May-27 07:32N 51°19' E 003°13'0 0.0
2014-May-27 06:57N 51°19' E 003°13'0 0.0
2014-May-27 06:27N 51°19' E 003°13'0 0.0
2014-May-27 06:04N 51°19' E 003°13'0 0.0
2014-May-27 05:32N 51°19' E 003°13'0 0.0
2014-May-27 04:33N 51°19' E 003°13'0 0.0
2014-May-27 04:02N 51°19' E 003°13'0 0.0
2014-May-27 03:33N 51°19' E 003°13'0 0.0
2014-May-27 00:33N 51°19' E 003°13'0 0.0
2014-May-27 00:02N 51°19' E 003°13'0 0.0
2014-May-26 23:24N 51°19' E 003°13'0 0.0
2014-May-26 22:58N 51°19' E 003°13'0 0.0
2014-May-26 22:31N 51°19' E 003°13'0 0.0
2014-May-26 22:02N 51°19' E 003°13'0 0.0
2014-May-26 21:30N 51°19' E 003°13'0 0.0
2014-May-26 20:02N 51°19' E 003°13'0 0.0
2014-May-26 19:21N 51°19' E 003°13'0 0.0
2014-May-26 18:57N 51°19' E 003°13'0 0.0
2014-May-26 18:27N 51°19' E 003°13'0 0.0
2014-May-26 18:01N 51°19' E 003°13'0 0.0
2014-May-26 17:32N 51°19' E 003°13'0 0.0
2014-May-26 17:00N 51°19' E 003°13'0 0.0
2014-May-26 16:28N 51°19' E 003°13'0 0.0
2014-May-26 16:01N 51°19' E 003°13'0 0.0
2014-May-26 15:29N 51°19' E 003°13'0 0.0
2014-May-26 14:30N 51°19' E 003°13'0 0.0
2014-May-26 13:55N 51°19' E 003°13'0 0.0
2014-May-26 13:33N 51°19' E 003°13'0 0.0
2014-May-26 13:01N 51°19' E 003°13'0 0.0
2014-May-26 12:27N 51°19' E 003°13'0 0.0
2014-May-26 12:04N 51°19' E 003°13'0 0.0
2014-May-26 11:29N 51°19' E 003°13'0 0.0
2014-May-26 10:58N 51°19' E 003°13'0 0.0
2014-May-26 10:33N 51°19' E 003°13'0 0.0
2014-May-26 10:03N 51°19' E 003°13'0 0.0
2014-May-26 09:32N 51°19' E 003°13'0 0.0
2014-May-26 09:00N 51°19' E 003°13'0 0.0
2014-May-26 08:26N 51°19' E 003°13'0 0.0
2014-May-26 08:02N 51°19' E 003°13'0 0.0
2014-May-26 07:31N 51°19' E 003°13'0 0.0
2014-May-26 06:59N 51°19' E 003°13'0 0.0
2014-May-26 06:27N 51°19' E 003°13'0 0.0
2014-May-26 06:03N 51°19' E 003°13'0 0.0
2014-May-26 05:04N 51°19' E 003°13'0 0.0
2014-May-26 04:33N 51°19' E 003°13'0 0.0
2014-May-26 04:04N 51°19' E 003°13'0 0.0
2014-May-26 03:21N 51°19' E 003°13'0 0.0
2014-May-26 02:57N 51°19' E 003°13'0 0.0
2014-May-26 02:23N 51°19' E 003°13'0 0.0
2014-May-26 02:03N 51°19' E 003°13'0 0.0
2014-May-26 01:31N 51°19' E 003°13'0 0.0
2014-May-26 00:56N 51°19' E 003°13'0 0.0
2014-May-26 00:32N 51°19' E 003°13'0 0.0
2014-May-26 00:03N 51°19' E 003°13'0 0.0
2014-May-25 23:31N 51°19' E 003°13'0 1.7
2014-May-25 23:18N 51°19' E 003°13'1 1.3
2014-May-25 22:33N 51°20' E 003°13'1 0.7
2014-May-25 21:33N 51°21' E 003°12'1111.3
2014-May-25 20:33N 51°22' E 002°54'1514.8
2014-May-25 19:33N 51°22' E 002°31'1815.5
2014-May-25 18:25N 51°14' E 002°06'1213.7
2014-May-25 17:33N 51°08' E 001°50'1312.8
2014-May-25 16:33N 50°59' E 001°35'1212.4
2014-May-25 15:34N 50°48' E 001°24'1614.6
2014-May-25 14:30N 50°36' E 001°09'1414.6
2014-May-25 13:33N 50°29' E 000°51'1514.5
2014-May-25 12:30N 50°25' E 000°28'4414.4
2014-May-25 09:28N 50°13' W 000°38'1515.1
2014-May-25 08:30N 50°09' W 001°00'2116.2
2014-May-25 07:14N 50°03' W 001°31'  

Dump ship's entire track history